sensor_id;sensor_type;location;lat;lon;timestamp;pressure;altitude;pressure_sealevel;temperature;humidity
39177;BME280;24904;52.208;21.192;2023-03-01T00:02:50;101885.35;;;-2.18;66.36
39177;BME280;24904;52.208;21.192;2023-03-01T00:07:54;101878.37;;;-2.07;66.22
39177;BME280;24904;52.208;21.192;2023-03-01T00:12:57;101876.48;;;-2.07;66.25
39177;BME280;24904;52.208;21.192;2023-03-01T00:18:00;101874.23;;;-2.08;66.21
39177;BME280;24904;52.208;21.192;2023-03-01T00:23:03;101871.62;;;-2.09;66.49
39177;BME280;24904;52.208;21.192;2023-03-01T00:28:06;101864.05;;;-2.07;66.47
39177;BME280;24904;52.208;21.192;2023-03-01T00:33:09;101859.25;;;-1.95;66.80
39177;BME280;24904;52.208;21.192;2023-03-01T00:38:12;101853.02;;;-1.75;67.18
39177;BME280;24904;52.208;21.192;2023-03-01T00:43:15;101854.10;;;-1.54;67.08
39177;BME280;24904;52.208;21.192;2023-03-01T00:48:18;101854.77;;;-1.36;67.03
39177;BME280;24904;52.208;21.192;2023-03-01T00:53:21;101854.02;;;-1.26;66.72
39177;BME280;24904;52.208;21.192;2023-03-01T00:58:24;101852.04;;;-1.32;66.74
39177;BME280;24904;52.208;21.192;2023-03-01T01:03:27;101847.34;;;-1.35;66.79
39177;BME280;24904;52.208;21.192;2023-03-01T01:08:30;101841.42;;;-1.32;66.39
39177;BME280;24904;52.208;21.192;2023-03-01T01:13:33;101831.02;;;-1.35;66.75
39177;BME280;24904;52.208;21.192;2023-03-01T01:18:36;101833.45;;;-1.32;66.51
39177;BME280;24904;52.208;21.192;2023-03-01T01:23:41;101822.71;;;-1.43;66.44
39177;BME280;24904;52.208;21.192;2023-03-01T01:28:45;101819.72;;;-1.55;66.12
39177;BME280;24904;52.208;21.192;2023-03-01T01:33:48;101815.02;;;-1.64;66.11
39177;BME280;24904;52.208;21.192;2023-03-01T01:38:51;101814.02;;;-1.70;65.99
39177;BME280;24904;52.208;21.192;2023-03-01T01:44:16;101819.30;;;-1.79;66.27
39177;BME280;24904;52.208;21.192;2023-03-01T01:49:27;101813.96;;;-1.83;66.11
39177;BME280;24904;52.208;21.192;2023-03-01T01:54:37;101805.19;;;-1.91;66.21
39177;BME280;24904;52.208;21.192;2023-03-01T01:59:45;101797.71;;;-1.97;66.22
39177;BME280;24904;52.208;21.192;2023-03-01T02:04:52;101798.51;;;-2.05;66.43
39177;BME280;24904;52.208;21.192;2023-03-01T02:09:57;101799.70;;;-2.11;66.49
39177;BME280;24904;52.208;21.192;2023-03-01T02:15:01;101792.17;;;-2.14;66.61
39177;BME280;24904;52.208;21.192;2023-03-01T02:20:14;101797.08;;;-2.21;66.63
39177;BME280;24904;52.208;21.192;2023-03-01T02:30:44;101776.53;;;-2.32;67.04
39177;BME280;24904;52.208;21.192;2023-03-01T02:36:05;101769.36;;;-2.21;67.27
39177;BME280;24904;52.208;21.192;2023-03-01T02:41:09;101767.23;;;-2.20;67.07
39177;BME280;24904;52.208;21.192;2023-03-01T02:46:19;101766.23;;;-2.23;67.49
39177;BME280;24904;52.208;21.192;2023-03-01T02:51:41;101766.52;;;-2.21;67.51
39177;BME280;24904;52.208;21.192;2023-03-01T02:56:46;101767.81;;;-2.20;67.72
39177;BME280;24904;52.208;21.192;2023-03-01T03:01:51;101759.01;;;-2.17;67.95
39177;BME280;24904;52.208;21.192;2023-03-01T03:06:55;101744.13;;;-2.01;68.23
39177;BME280;24904;52.208;21.192;2023-03-01T03:11:58;101741.58;;;-1.80;68.63
39177;BME280;24904;52.208;21.192;2023-03-01T03:17:01;101732.04;;;-1.71;68.09
39177;BME280;24904;52.208;21.192;2023-03-01T03:22:08;101722.39;;;-1.72;68.22
39177;BME280;24904;52.208;21.192;2023-03-01T03:27:11;101722.13;;;-1.66;68.24
39177;BME280;24904;52.208;21.192;2023-03-01T03:32:15;101719.45;;;-1.62;68.26
39177;BME280;24904;52.208;21.192;2023-03-01T03:37:18;101719.72;;;-1.60;67.90
39177;BME280;24904;52.208;21.192;2023-03-01T03:42:35;101729.64;;;-1.59;68.08
39177;BME280;24904;52.208;21.192;2023-03-01T03:47:38;101724.80;;;-1.57;68.24
39177;BME280;24904;52.208;21.192;2023-03-01T03:52:41;101716.16;;;-1.59;68.36
39177;BME280;24904;52.208;21.192;2023-03-01T03:57:45;101711.26;;;-1.62;68.28
39177;BME280;24904;52.208;21.192;2023-03-01T04:02:53;101707.16;;;-1.64;68.16
39177;BME280;24904;52.208;21.192;2023-03-01T04:07:58;101690.42;;;-1.60;68.31
39177;BME280;24904;52.208;21.192;2023-03-01T04:13:04;101688.55;;;-1.46;68.45
39177;BME280;24904;52.208;21.192;2023-03-01T04:18:09;101692.02;;;-1.43;68.25
39177;BME280;24904;52.208;21.192;2023-03-01T04:23:15;101700.17;;;-1.57;68.36
39177;BME280;24904;52.208;21.192;2023-03-01T04:28:22;101697.96;;;-1.57;68.47
39177;BME280;24904;52.208;21.192;2023-03-01T04:33:26;101687.30;;;-1.59;68.52
39177;BME280;24904;52.208;21.192;2023-03-01T04:38:29;101681.41;;;-1.51;68.57
39177;BME280;24904;52.208;21.192;2023-03-01T04:43:33;101675.13;;;-1.37;68.53
39177;BME280;24904;52.208;21.192;2023-03-01T04:48:37;101668.23;;;-1.36;68.40
39177;BME280;24904;52.208;21.192;2023-03-01T04:53:41;101666.88;;;-1.39;68.56
39177;BME280;24904;52.208;21.192;2023-03-01T04:58:45;101669.61;;;-1.40;68.27
39177;BME280;24904;52.208;21.192;2023-03-01T05:03:49;101667.02;;;-1.43;68.25
39177;BME280;24904;52.208;21.192;2023-03-01T05:08:53;101664.25;;;-1.43;68.55
39177;BME280;24904;52.208;21.192;2023-03-01T05:13:56;101675.92;;;-1.36;68.54
39177;BME280;24904;52.208;21.192;2023-03-01T05:18:59;101683.97;;;-1.32;68.34
39177;BME280;24904;52.208;21.192;2023-03-01T05:24:03;101679.38;;;-1.33;68.31
39177;BME280;24904;52.208;21.192;2023-03-01T05:29:06;101686.94;;;-1.33;68.20
39177;BME280;24904;52.208;21.192;2023-03-01T05:34:12;101693.06;;;-1.34;68.38
39177;BME280;24904;52.208;21.192;2023-03-01T05:39:15;101704.27;;;-1.26;68.36
39177;BME280;24904;52.208;21.192;2023-03-01T05:44:18;101702.98;;;-1.23;68.51
39177;BME280;24904;52.208;21.192;2023-03-01T05:49:21;101704.92;;;-1.23;68.30
39177;BME280;24904;52.208;21.192;2023-03-01T05:59:49;101710.44;;;-1.14;68.44
39177;BME280;24904;52.208;21.192;2023-03-01T06:04:52;101713.43;;;-1.10;68.48
39177;BME280;24904;52.208;21.192;2023-03-01T06:09:56;101709.13;;;-1.05;68.59
39177;BME280;24904;52.208;21.192;2023-03-01T06:14:59;101703.32;;;-0.98;69.00
39177;BME280;24904;52.208;21.192;2023-03-01T06:20:02;101701.30;;;-0.85;68.98
39177;BME280;24904;52.208;21.192;2023-03-01T06:25:07;101697.98;;;-0.73;69.07
39177;BME280;24904;52.208;21.192;2023-03-01T06:35:18;101704.05;;;-0.51;68.73
39177;BME280;24904;52.208;21.192;2023-03-01T06:40:22;101703.89;;;-0.41;68.60
39177;BME280;24904;52.208;21.192;2023-03-01T06:45:25;101704.06;;;-0.29;68.59
39177;BME280;24904;52.208;21.192;2023-03-01T06:50:28;101703.89;;;-0.15;68.72
39177;BME280;24904;52.208;21.192;2023-03-01T06:55:31;101701.33;;;0.02;68.32
39177;BME280;24904;52.208;21.192;2023-03-01T07:00:34;101703.78;;;0.19;68.36
39177;BME280;24904;52.208;21.192;2023-03-01T07:05:37;101706.61;;;0.36;68.11
39177;BME280;24904;52.208;21.192;2023-03-01T07:10:40;101710.66;;;0.55;67.82
39177;BME280;24904;52.208;21.192;2023-03-01T07:15:43;101709.95;;;0.71;67.65
39177;BME280;24904;52.208;21.192;2023-03-01T07:20:46;101711.85;;;0.80;67.01
39177;BME280;24904;52.208;21.192;2023-03-01T07:25:53;101702.18;;;0.90;66.97
39177;BME280;24904;52.208;21.192;2023-03-01T07:31:01;101691.99;;;1.05;66.93
39177;BME280;24904;52.208;21.192;2023-03-01T07:36:05;101692.97;;;1.22;66.37
39177;BME280;24904;52.208;21.192;2023-03-01T07:41:08;101685.86;;;1.33;66.14
39177;BME280;24904;52.208;21.192;2023-03-01T07:46:11;101685.61;;;1.52;66.66
39177;BME280;24904;52.208;21.192;2023-03-01T07:51:14;101688.30;;;1.67;65.69
39177;BME280;24904;52.208;21.192;2023-03-01T07:56:18;101691.77;;;1.78;64.96
39177;BME280;24904;52.208;21.192;2023-03-01T08:07:28;101684.23;;;2.10;64.56
39177;BME280;24904;52.208;21.192;2023-03-01T08:12:31;101687.67;;;2.23;64.54
39177;BME280;24904;52.208;21.192;2023-03-01T08:17:34;101694.04;;;2.41;64.35
39177;BME280;24904;52.208;21.192;2023-03-01T08:22:37;101691.25;;;2.61;64.10
39177;BME280;24904;52.208;21.192;2023-03-01T08:27:40;101690.16;;;2.78;63.73
39177;BME280;24904;52.208;21.192;2023-03-01T08:32:42;101691.86;;;2.90;63.66
39177;BME280;24904;52.208;21.192;2023-03-01T08:37:46;101678.79;;;3.10;63.67
39177;BME280;24904;52.208;21.192;2023-03-01T08:42:49;101675.21;;;3.20;63.54
39177;BME280;24904;52.208;21.192;2023-03-01T08:47:53;101678.52;;;3.30;63.41
39177;BME280;24904;52.208;21.192;2023-03-01T08:52:56;101685.16;;;3.48;63.27
39177;BME280;24904;52.208;21.192;2023-03-01T08:57:59;101685.92;;;3.68;63.15
39177;BME280;24904;52.208;21.192;2023-03-01T09:03:03;101687.20;;;3.79;62.71
39177;BME280;24904;52.208;21.192;2023-03-01T09:08:06;101688.83;;;3.83;62.57
39177;BME280;24904;52.208;21.192;2023-03-01T09:13:11;101686.03;;;3.77;62.31
39177;BME280;24904;52.208;21.192;2023-03-01T09:18:14;101678.45;;;3.82;62.92
39177;BME280;24904;52.208;21.192;2023-03-01T09:23:17;101673.75;;;3.92;63.08
39177;BME280;24904;52.208;21.192;2023-03-01T09:28:20;101667.09;;;3.95;62.86
39177;BME280;24904;52.208;21.192;2023-03-01T09:33:25;101659.86;;;3.95;62.92
39177;BME280;24904;52.208;21.192;2023-03-01T09:38:29;101658.02;;;3.94;63.15
39177;BME280;24904;52.208;21.192;2023-03-01T09:43:42;101650.48;;;4.17;63.44
39177;BME280;24904;52.208;21.192;2023-03-01T09:48:50;101657.52;;;4.39;62.92
39177;BME280;24904;52.208;21.192;2023-03-01T09:53:54;101656.49;;;4.46;62.26
39177;BME280;24904;52.208;21.192;2023-03-01T09:59:06;101651.29;;;4.56;62.12
39177;BME280;24904;52.208;21.192;2023-03-01T10:04:27;101643.20;;;4.75;62.09
39177;BME280;24904;52.208;21.192;2023-03-01T10:09:33;101633.73;;;4.94;61.94
39177;BME280;24904;52.208;21.192;2023-03-01T10:14:39;101625.98;;;5.11;61.46
39177;BME280;24904;52.208;21.192;2023-03-01T10:19:47;101614.15;;;5.20;61.32
39177;BME280;24904;52.208;21.192;2023-03-01T10:24:52;101613.34;;;5.44;61.49
39177;BME280;24904;52.208;21.192;2023-03-01T10:30:01;101612.37;;;5.60;60.66
39177;BME280;24904;52.208;21.192;2023-03-01T10:35:19;101609.13;;;5.67;60.37
39177;BME280;24904;52.208;21.192;2023-03-01T10:40:22;101605.16;;;5.70;60.04
39177;BME280;24904;52.208;21.192;2023-03-01T10:45:32;101604.38;;;5.81;60.27
39177;BME280;24904;52.208;21.192;2023-03-01T10:50:36;101596.39;;;5.84;59.38
39177;BME280;24904;52.208;21.192;2023-03-01T10:55:41;101596.94;;;5.90;59.70
39177;BME280;24904;52.208;21.192;2023-03-01T11:00:49;101595.85;;;6.03;59.47
39177;BME280;24904;52.208;21.192;2023-03-01T11:05:57;101595.48;;;6.13;59.41
39177;BME280;24904;52.208;21.192;2023-03-01T11:11:16;101589.98;;;6.10;59.12
39177;BME280;24904;52.208;21.192;2023-03-01T11:16:25;101593.93;;;6.13;58.82
39177;BME280;24904;52.208;21.192;2023-03-01T11:21:30;101586.77;;;6.16;58.92
39177;BME280;24904;52.208;21.192;2023-03-01T11:26:37;101577.35;;;6.27;59.01
39177;BME280;24904;52.208;21.192;2023-03-01T11:31:43;101570.16;;;6.39;59.14
39177;BME280;24904;52.208;21.192;2023-03-01T11:36:49;101567.51;;;6.46;59.11
39177;BME280;24904;52.208;21.192;2023-03-01T11:42:05;101563.45;;;6.50;58.92
39177;BME280;24904;52.208;21.192;2023-03-01T11:47:18;101567.11;;;6.56;58.72
39177;BME280;24904;52.208;21.192;2023-03-01T11:52:33;101568.34;;;6.62;58.53
39177;BME280;24904;52.208;21.192;2023-03-01T11:57:49;101564.47;;;6.56;58.63
39177;BME280;24904;52.208;21.192;2023-03-01T12:08:38;101567.71;;;6.48;58.44
39177;BME280;24904;52.208;21.192;2023-03-01T12:13:53;101563.04;;;6.58;58.78
39177;BME280;24904;52.208;21.192;2023-03-01T12:19:10;101562.46;;;6.70;58.39
39177;BME280;24904;52.208;21.192;2023-03-01T12:24:30;101562.86;;;6.82;58.59
39177;BME280;24904;52.208;21.192;2023-03-01T12:29:42;101550.45;;;6.87;58.18
39177;BME280;24904;52.208;21.192;2023-03-01T12:35:00;101541.58;;;6.91;58.02
39177;BME280;24904;52.208;21.192;2023-03-01T12:40:29;101537.54;;;7.00;58.46
39177;BME280;24904;52.208;21.192;2023-03-01T12:46:00;101534.09;;;7.09;58.22
39177;BME280;24904;52.208;21.192;2023-03-01T12:51:07;101533.30;;;7.12;58.42
39177;BME280;24904;52.208;21.192;2023-03-01T12:56:15;101526.69;;;7.22;58.05
39177;BME280;24904;52.208;21.192;2023-03-01T13:01:31;101519.78;;;7.30;58.18
39177;BME280;24904;52.208;21.192;2023-03-01T13:06:41;101522.49;;;7.38;58.31
39177;BME280;24904;52.208;21.192;2023-03-01T13:11:47;101520.08;;;7.44;57.99
39177;BME280;24904;52.208;21.192;2023-03-01T13:16:51;101518.33;;;7.45;58.24
39177;BME280;24904;52.208;21.192;2023-03-01T13:21:55;101511.18;;;7.50;58.67
39177;BME280;24904;52.208;21.192;2023-03-01T13:27:19;101507.14;;;7.54;58.71
39177;BME280;24904;52.208;21.192;2023-03-01T13:32:26;101503.88;;;7.49;58.56
39177;BME280;24904;52.208;21.192;2023-03-01T13:37:37;101504.34;;;7.34;58.66
39177;BME280;24904;52.208;21.192;2023-03-01T13:42:44;101501.08;;;7.21;58.86
39177;BME280;24904;52.208;21.192;2023-03-01T13:47:53;101498.77;;;7.22;59.19
39177;BME280;24904;52.208;21.192;2023-03-01T13:53:03;101491.33;;;7.29;59.23
39177;BME280;24904;52.208;21.192;2023-03-01T13:58:18;101489.30;;;7.29;59.24
39177;BME280;24904;52.208;21.192;2023-03-01T14:03:25;101484.96;;;7.35;59.30
39177;BME280;24904;52.208;21.192;2023-03-01T14:08:30;101482.09;;;7.36;59.11
39177;BME280;24904;52.208;21.192;2023-03-01T14:13:51;101482.90;;;7.36;59.35
39177;BME280;24904;52.208;21.192;2023-03-01T14:19:06;101481.50;;;7.31;59.31
39177;BME280;24904;52.208;21.192;2023-03-01T14:24:21;101483.48;;;7.24;59.29
39177;BME280;24904;52.208;21.192;2023-03-01T14:29:33;101474.23;;;7.21;59.55
39177;BME280;24904;52.208;21.192;2023-03-01T14:45:10;101450.73;;;7.32;59.86
39177;BME280;24904;52.208;21.192;2023-03-01T14:50:25;101450.63;;;7.32;59.34
39177;BME280;24904;52.208;21.192;2023-03-01T14:55:34;101447.04;;;7.35;59.47
39177;BME280;24904;52.208;21.192;2023-03-01T15:00:47;101447.14;;;7.36;59.48
39177;BME280;24904;52.208;21.192;2023-03-01T15:05:54;101440.64;;;7.32;59.69
39177;BME280;24904;52.208;21.192;2023-03-01T15:11:01;101444.23;;;7.24;59.66
39177;BME280;24904;52.208;21.192;2023-03-01T15:16:09;101439.35;;;7.14;59.76
39177;BME280;24904;52.208;21.192;2023-03-01T15:21:20;101432.52;;;7.09;59.73
39177;BME280;24904;52.208;21.192;2023-03-01T15:26:30;101428.41;;;7.01;59.61
39177;BME280;24904;52.208;21.192;2023-03-01T15:31:37;101428.05;;;6.92;59.95
39177;BME280;24904;52.208;21.192;2023-03-01T15:36:45;101424.92;;;6.81;59.94
39177;BME280;24904;52.208;21.192;2023-03-01T15:41:53;101427.42;;;6.68;59.92
39177;BME280;24904;52.208;21.192;2023-03-01T15:46:59;101430.31;;;6.58;60.48
39177;BME280;24904;52.208;21.192;2023-03-01T15:52:05;101429.56;;;6.50;60.97
39177;BME280;24904;52.208;21.192;2023-03-01T15:57:13;101423.59;;;6.40;60.87
39177;BME280;24904;52.208;21.192;2023-03-01T16:02:18;101410.98;;;6.37;61.31
39177;BME280;24904;52.208;21.192;2023-03-01T16:07:24;101415.64;;;6.24;61.41
39177;BME280;24904;52.208;21.192;2023-03-01T16:12:31;101420.73;;;6.08;61.53
39177;BME280;24904;52.208;21.192;2023-03-01T16:17:36;101416.71;;;6.00;61.94
39177;BME280;24904;52.208;21.192;2023-03-01T16:22:41;101425.55;;;5.92;62.09
39177;BME280;24904;52.208;21.192;2023-03-01T16:27:48;101425.90;;;5.89;62.20
39177;BME280;24904;52.208;21.192;2023-03-01T16:32:54;101429.31;;;5.81;61.95
39177;BME280;24904;52.208;21.192;2023-03-01T16:38:00;101427.77;;;5.66;62.23
39177;BME280;24904;52.208;21.192;2023-03-01T16:43:05;101419.20;;;5.49;62.32
39177;BME280;24904;52.208;21.192;2023-03-01T16:48:13;101421.67;;;5.33;62.63
39177;BME280;24904;52.208;21.192;2023-03-01T16:53:18;101424.12;;;5.26;62.88
39177;BME280;24904;52.208;21.192;2023-03-01T16:58:23;101424.35;;;5.15;63.06
39177;BME280;24904;52.208;21.192;2023-03-01T17:03:28;101427.29;;;4.90;63.15
39177;BME280;24904;52.208;21.192;2023-03-01T17:08:35;101434.09;;;4.66;63.54
39177;BME280;24904;52.208;21.192;2023-03-01T17:13:40;101442.08;;;4.44;63.57
39177;BME280;24904;52.208;21.192;2023-03-01T17:18:46;101446.55;;;4.18;63.44
39177;BME280;24904;52.208;21.192;2023-03-01T17:23:54;101451.98;;;3.97;63.73
39177;BME280;24904;52.208;21.192;2023-03-01T17:28:59;101453.28;;;3.79;64.14
39177;BME280;24904;52.208;21.192;2023-03-01T17:34:04;101463.64;;;3.65;64.73
39177;BME280;24904;52.208;21.192;2023-03-01T17:39:09;101467.40;;;3.48;64.75
39177;BME280;24904;52.208;21.192;2023-03-01T17:44:14;101460.25;;;3.35;64.95
39177;BME280;24904;52.208;21.192;2023-03-01T17:49:19;101452.24;;;3.23;65.33
39177;BME280;24904;52.208;21.192;2023-03-01T17:54:24;101438.64;;;3.13;65.65
39177;BME280;24904;52.208;21.192;2023-03-01T17:59:30;101441.02;;;3.21;66.43
39177;BME280;24904;52.208;21.192;2023-03-01T18:04:36;101435.48;;;3.24;66.32
39177;BME280;24904;52.208;21.192;2023-03-01T18:09:41;101432.54;;;3.31;66.89
39177;BME280;24904;52.208;21.192;2023-03-01T18:14:47;101436.52;;;3.38;66.54
39177;BME280;24904;52.208;21.192;2023-03-01T18:19:56;101428.68;;;3.28;66.41
39177;BME280;24904;52.208;21.192;2023-03-01T18:25:01;101430.77;;;3.21;66.58
39177;BME280;24904;52.208;21.192;2023-03-01T18:30:10;101424.68;;;3.13;66.20
39177;BME280;24904;52.208;21.192;2023-03-01T18:35:16;101427.74;;;2.94;66.68
39177;BME280;24904;52.208;21.192;2023-03-01T18:40:21;101430.45;;;2.79;66.60
39177;BME280;24904;52.208;21.192;2023-03-01T18:45:26;101430.20;;;2.64;66.57
39177;BME280;24904;52.208;21.192;2023-03-01T18:50:31;101432.83;;;2.52;66.65
39177;BME280;24904;52.208;21.192;2023-03-01T18:55:38;101434.67;;;2.42;67.08
39177;BME280;24904;52.208;21.192;2023-03-01T19:00:43;101428.11;;;2.31;67.18
39177;BME280;24904;52.208;21.192;2023-03-01T19:05:48;101433.35;;;2.22;67.40
39177;BME280;24904;52.208;21.192;2023-03-01T19:10:57;101434.85;;;2.12;67.42
39177;BME280;24904;52.208;21.192;2023-03-01T19:16:08;101436.48;;;2.00;67.61
39177;BME280;24904;52.208;21.192;2023-03-01T19:21:13;101442.55;;;1.92;67.66
39177;BME280;24904;52.208;21.192;2023-03-01T19:26:20;101456.82;;;1.81;67.81
39177;BME280;24904;52.208;21.192;2023-03-01T19:31:27;101461.23;;;1.70;67.98
39177;BME280;24904;52.208;21.192;2023-03-01T19:36:33;101464.41;;;1.63;67.88
39177;BME280;24904;52.208;21.192;2023-03-01T19:41:38;101462.36;;;1.52;68.10
39177;BME280;24904;52.208;21.192;2023-03-01T19:46:43;101460.70;;;1.50;68.33
39177;BME280;24904;52.208;21.192;2023-03-01T19:51:48;101464.23;;;1.46;68.58
39177;BME280;24904;52.208;21.192;2023-03-01T19:56:53;101466.70;;;1.37;68.38
39177;BME280;24904;52.208;21.192;2023-03-01T20:01:59;101462.52;;;1.29;68.61
39177;BME280;24904;52.208;21.192;2023-03-01T20:07:04;101465.04;;;1.24;68.79
39177;BME280;24904;52.208;21.192;2023-03-01T20:12:09;101471.66;;;1.23;69.07
39177;BME280;24904;52.208;21.192;2023-03-01T20:17:14;101466.39;;;1.20;69.05
39177;BME280;24904;52.208;21.192;2023-03-01T20:22:19;101474.77;;;1.15;69.15
39177;BME280;24904;52.208;21.192;2023-03-01T20:27:25;101474.21;;;1.10;69.20
39177;BME280;24904;52.208;21.192;2023-03-01T20:32:30;101478.06;;;1.05;69.31
39177;BME280;24904;52.208;21.192;2023-03-01T20:37:35;101482.39;;;1.05;69.53
39177;BME280;24904;52.208;21.192;2023-03-01T20:42:40;101480.68;;;1.02;69.57
39177;BME280;24904;52.208;21.192;2023-03-01T20:47:46;101478.08;;;0.98;69.71
39177;BME280;24904;52.208;21.192;2023-03-01T20:52:51;101475.76;;;0.91;69.89
39177;BME280;24904;52.208;21.192;2023-03-01T20:57:56;101475.89;;;0.88;70.04
39177;BME280;24904;52.208;21.192;2023-03-01T21:03:01;101472.50;;;0.86;70.07
39177;BME280;24904;52.208;21.192;2023-03-01T21:08:07;101467.38;;;0.85;70.12
39177;BME280;24904;52.208;21.192;2023-03-01T21:13:12;101472.57;;;0.82;70.07
39177;BME280;24904;52.208;21.192;2023-03-01T21:18:17;101472.98;;;0.74;70.01
39177;BME280;24904;52.208;21.192;2023-03-01T21:23:22;101466.75;;;0.68;70.18
39177;BME280;24904;52.208;21.192;2023-03-01T21:28:27;101458.73;;;0.68;70.29
39177;BME280;24904;52.208;21.192;2023-03-01T21:33:35;101455.50;;;0.67;70.18
39177;BME280;24904;52.208;21.192;2023-03-01T21:38:42;101451.24;;;0.66;70.18
39177;BME280;24904;52.208;21.192;2023-03-01T21:43:50;101452.55;;;0.59;70.24
39177;BME280;24904;52.208;21.192;2023-03-01T21:48:55;101449.67;;;0.52;70.30
39177;BME280;24904;52.208;21.192;2023-03-01T21:54:01;101450.60;;;0.46;70.52
39177;BME280;24904;52.208;21.192;2023-03-01T21:59:08;101453.11;;;0.44;70.44
39177;BME280;24904;52.208;21.192;2023-03-01T22:04:16;101451.38;;;0.43;70.67
39177;BME280;24904;52.208;21.192;2023-03-01T22:09:23;101449.02;;;0.38;70.36
39177;BME280;24904;52.208;21.192;2023-03-01T22:14:30;101453.83;;;0.33;70.54
39177;BME280;24904;52.208;21.192;2023-03-01T22:19:35;101448.39;;;0.30;70.80
39177;BME280;24904;52.208;21.192;2023-03-01T22:24:40;101434.15;;;0.35;70.87
39177;BME280;24904;52.208;21.192;2023-03-01T22:29:45;101433.98;;;0.33;70.77
39177;BME280;24904;52.208;21.192;2023-03-01T22:34:50;101440.84;;;0.25;70.39
39177;BME280;24904;52.208;21.192;2023-03-01T22:39:55;101442.04;;;0.25;70.80
39177;BME280;24904;52.208;21.192;2023-03-01T22:45:00;101437.56;;;0.23;70.77
39177;BME280;24904;52.208;21.192;2023-03-01T22:50:08;101439.34;;;0.17;70.81
39177;BME280;24904;52.208;21.192;2023-03-01T22:55:16;101440.34;;;0.11;70.61
39177;BME280;24904;52.208;21.192;2023-03-01T23:00:22;101438.39;;;0.11;70.86
39177;BME280;24904;52.208;21.192;2023-03-01T23:05:27;101436.45;;;0.11;70.91
39177;BME280;24904;52.208;21.192;2023-03-01T23:10:32;101448.17;;;0.10;70.84
39177;BME280;24904;52.208;21.192;2023-03-01T23:15:37;101448.86;;;0.06;70.97
39177;BME280;24904;52.208;21.192;2023-03-01T23:20:47;101449.53;;;0.03;71.14
39177;BME280;24904;52.208;21.192;2023-03-01T23:25:56;101444.36;;;0.02;71.14
39177;BME280;24904;52.208;21.192;2023-03-01T23:31:00;101438.40;;;0.04;71.15
39177;BME280;24904;52.208;21.192;2023-03-01T23:36:13;101440.64;;;-0.05;71.06
39177;BME280;24904;52.208;21.192;2023-03-01T23:41:21;101434.80;;;-0.11;71.35
39177;BME280;24904;52.208;21.192;2023-03-01T23:46:29;101436.27;;;-0.14;71.37
39177;BME280;24904;52.208;21.192;2023-03-01T23:51:35;101436.64;;;-0.15;71.33
39177;BME280;24904;52.208;21.192;2023-03-01T23:56:42;101438.55;;;-0.17;71.33
